sensor_id;sensor_type;location;lat;lon;timestamp;pressure;altitude;pressure_sealevel;temperature;humidity
54389;BME280;40975;50.390;8.640;2023-02-16T00:01:46;100175.47;;;0.29;100.00
54389;BME280;40975;50.390;8.640;2023-02-16T00:04:21;100179.91;;;0.27;100.00
54389;BME280;40975;50.390;8.640;2023-02-16T00:06:48;100185.19;;;0.26;100.00
54389;BME280;40975;50.390;8.640;2023-02-16T00:09:13;100180.03;;;0.24;100.00
54389;BME280;40975;50.390;8.640;2023-02-16T00:11:39;100189.50;;;0.27;100.00
54389;BME280;40975;50.390;8.640;2023-02-16T00:14:24;100179.91;;;0.27;100.00
54389;BME280;40975;50.390;8.640;2023-02-16T00:16:55;100178.84;;;0.33;100.00
54389;BME280;40975;50.390;8.640;2023-02-16T00:19:38;100182.59;;;0.26;100.00
54389;BME280;40975;50.390;8.640;2023-02-16T00:22:06;100179.16;;;0.24;100.00
54389;BME280;40975;50.390;8.640;2023-02-16T00:24:31;100168.38;;;0.09;100.00
54389;BME280;40975;50.390;8.640;2023-02-16T00:26:57;100167.66;;;0.04;100.00
54389;BME280;40975;50.390;8.640;2023-02-16T00:29:25;100178.19;;;0.03;100.00
54389;BME280;40975;50.390;8.640;2023-02-16T00:31:52;100164.38;;;-0.01;100.00
54389;BME280;40975;50.390;8.640;2023-02-16T00:34:32;100161.31;;;-0.14;100.00
54389;BME280;40975;50.390;8.640;2023-02-16T00:37:00;100162.13;;;-0.12;100.00
54389;BME280;40975;50.390;8.640;2023-02-16T00:39:26;100157.41;;;-0.01;100.00
54389;BME280;40975;50.390;8.640;2023-02-16T00:41:57;100148.09;;;-0.08;100.00
54389;BME280;40975;50.390;8.640;2023-02-16T00:44:33;100153.97;;;-0.03;100.00
54389;BME280;40975;50.390;8.640;2023-02-16T00:49:50;100144.19;;;0.04;100.00
54389;BME280;40975;50.390;8.640;2023-02-16T00:54:50;100154.63;;;0.04;100.00
54389;BME280;40975;50.390;8.640;2023-02-16T00:57:17;100145.88;;;0.05;100.00
54389;BME280;40975;50.390;8.640;2023-02-16T00:59:43;100145.81;;;0.07;100.00
54389;BME280;40975;50.390;8.640;2023-02-16T01:02:08;100149.31;;;0.07;100.00
54389;BME280;40975;50.390;8.640;2023-02-16T01:04:34;100141.31;;;0.12;100.00
54389;BME280;40975;50.390;8.640;2023-02-16T01:07:01;100145.72;;;0.10;100.00
54389;BME280;40975;50.390;8.640;2023-02-16T01:09:45;100148.41;;;0.08;100.00
54389;BME280;40975;50.390;8.640;2023-02-16T01:12:29;100143.94;;;0.10;100.00
54389;BME280;40975;50.390;8.640;2023-02-16T01:14:54;100148.22;;;0.13;100.00
54389;BME280;40975;50.390;8.640;2023-02-16T01:17:22;100155.34;;;0.08;100.00
54389;BME280;40975;50.390;8.640;2023-02-16T01:19:47;100161.53;;;0.05;100.00
54389;BME280;40975;50.390;8.640;2023-02-16T01:22:14;100157.16;;;0.06;100.00
54389;BME280;40975;50.390;8.640;2023-02-16T01:24:40;100154.56;;;0.06;100.00
54389;BME280;40975;50.390;8.640;2023-02-16T01:27:09;100156.97;;;0.12;100.00
54389;BME280;40975;50.390;8.640;2023-02-16T01:29:35;100151.63;;;0.15;100.00
54389;BME280;40975;50.390;8.640;2023-02-16T01:32:00;100151.78;;;0.10;100.00
54389;BME280;40975;50.390;8.640;2023-02-16T01:34:25;100151.09;;;0.05;100.00
54389;BME280;40975;50.390;8.640;2023-02-16T01:36:51;100142.31;;;0.08;100.00
54389;BME280;40975;50.390;8.640;2023-02-16T01:39:20;100135.50;;;0.04;100.00
54389;BME280;40975;50.390;8.640;2023-02-16T01:42:02;100140.34;;;-0.11;100.00
54389;BME280;40975;50.390;8.640;2023-02-16T01:44:37;100133.56;;;-0.15;100.00
54389;BME280;40975;50.390;8.640;2023-02-16T01:47:09;100126.41;;;-0.10;100.00
54389;BME280;40975;50.390;8.640;2023-02-16T01:49:39;100133.50;;;-0.13;100.00
54389;BME280;40975;50.390;8.640;2023-02-16T01:52:31;100125.44;;;-0.07;100.00
54389;BME280;40975;50.390;8.640;2023-02-16T01:55:15;100127.06;;;-0.05;100.00
54389;BME280;40975;50.390;8.640;2023-02-16T02:02:51;100119.41;;;-0.09;100.00
54389;BME280;40975;50.390;8.640;2023-02-16T02:05:24;100122.19;;;-0.14;100.00
54389;BME280;40975;50.390;8.640;2023-02-16T02:08:13;100110.09;;;-0.17;100.00
54389;BME280;40975;50.390;8.640;2023-02-16T02:10:45;100114.91;;;-0.04;100.00
54389;BME280;40975;50.390;8.640;2023-02-16T02:13:30;100116.69;;;-0.06;100.00
54389;BME280;40975;50.390;8.640;2023-02-16T02:15:58;100111.47;;;-0.06;100.00
54389;BME280;40975;50.390;8.640;2023-02-16T02:18:26;100112.69;;;-0.15;100.00
54389;BME280;40975;50.390;8.640;2023-02-16T02:21:20;100112.38;;;-0.07;100.00
54389;BME280;40975;50.390;8.640;2023-02-16T02:24:35;100108.03;;;-0.07;100.00
54389;BME280;40975;50.390;8.640;2023-02-16T02:27:15;100113.44;;;-0.13;100.00
54389;BME280;40975;50.390;8.640;2023-02-16T02:35:19;100098.44;;;-0.06;100.00
54389;BME280;40975;50.390;8.640;2023-02-16T02:38:04;100092.47;;;-0.10;100.00
54389;BME280;40975;50.390;8.640;2023-02-16T02:43:25;100085.66;;;-0.14;100.00
54389;BME280;40975;50.390;8.640;2023-02-16T02:46:11;100092.06;;;-0.23;100.00
54389;BME280;40975;50.390;8.640;2023-02-16T02:48:37;100066.31;;;-0.32;100.00
54389;BME280;40975;50.390;8.640;2023-02-16T02:54:15;100094.03;;;-0.29;100.00
54389;BME280;40975;50.390;8.640;2023-02-16T02:57:10;100084.06;;;-0.43;100.00
54389;BME280;40975;50.390;8.640;2023-02-16T03:00:18;100095.19;;;-0.38;100.00
54389;BME280;40975;50.390;8.640;2023-02-16T03:03:12;100093.38;;;-0.36;100.00
54389;BME280;40975;50.390;8.640;2023-02-16T03:05:42;100096.88;;;-0.36;100.00
54389;BME280;40975;50.390;8.640;2023-02-16T03:08:10;100096.91;;;-0.37;100.00
54389;BME280;40975;50.390;8.640;2023-02-16T03:10:41;100094.19;;;-0.34;100.00
54389;BME280;40975;50.390;8.640;2023-02-16T03:13:30;100092.06;;;-0.48;100.00
54389;BME280;40975;50.390;8.640;2023-02-16T03:16:02;100091.84;;;-0.42;100.00
54389;BME280;40975;50.390;8.640;2023-02-16T03:18:29;100089.97;;;-0.38;100.00
54389;BME280;40975;50.390;8.640;2023-02-16T03:21:16;100088.44;;;-0.44;100.00
54389;BME280;40975;50.390;8.640;2023-02-16T03:24:02;100088.25;;;-0.39;100.00
54389;BME280;40975;50.390;8.640;2023-02-16T03:26:48;100086.78;;;-0.47;100.00
54389;BME280;40975;50.390;8.640;2023-02-16T03:29:34;100079.84;;;-0.48;100.00
54389;BME280;40975;50.390;8.640;2023-02-16T03:32:00;100086.63;;;-0.42;100.00
54389;BME280;40975;50.390;8.640;2023-02-16T03:34:27;100078.97;;;-0.47;100.00
54389;BME280;40975;50.390;8.640;2023-02-16T03:36:56;100085.97;;;-0.49;100.00
54389;BME280;40975;50.390;8.640;2023-02-16T03:39:24;100082.44;;;-0.46;100.00
54389;BME280;40975;50.390;8.640;2023-02-16T03:41:52;100082.38;;;-0.44;100.00
54389;BME280;40975;50.390;8.640;2023-02-16T03:44:19;100087.53;;;-0.43;100.00
54389;BME280;40975;50.390;8.640;2023-02-16T03:46:45;100078.88;;;-0.43;100.00
54389;BME280;40975;50.390;8.640;2023-02-16T03:49:10;100079.81;;;-0.46;100.00
54389;BME280;40975;50.390;8.640;2023-02-16T03:51:36;100084.88;;;-0.41;100.00
54389;BME280;40975;50.390;8.640;2023-02-16T03:54:01;100088.34;;;-0.41;100.00
54389;BME280;40975;50.390;8.640;2023-02-16T03:56:26;100095.34;;;-0.43;100.00
54389;BME280;40975;50.390;8.640;2023-02-16T03:58:52;100103.25;;;-0.44;100.00
54389;BME280;40975;50.390;8.640;2023-02-16T04:01:17;100098.09;;;-0.46;100.00
54389;BME280;40975;50.390;8.640;2023-02-16T04:03:43;100091.00;;;-0.42;100.00
54389;BME280;40975;50.390;8.640;2023-02-16T04:06:08;100097.19;;;-0.45;100.00
54389;BME280;40975;50.390;8.640;2023-02-16T04:08:34;100099.81;;;-0.47;100.00
54389;BME280;40975;50.390;8.640;2023-02-16T04:11:00;100103.31;;;-0.46;100.00
54389;BME280;40975;50.390;8.640;2023-02-16T04:13:45;100087.75;;;-0.49;100.00
54389;BME280;40975;50.390;8.640;2023-02-16T04:16:10;100079.13;;;-0.51;100.00
54389;BME280;40975;50.390;8.640;2023-02-16T04:18:35;100075.59;;;-0.50;100.00
54389;BME280;40975;50.390;8.640;2023-02-16T04:21:01;100069.66;;;-0.54;100.00
54389;BME280;40975;50.390;8.640;2023-02-16T04:23:26;100082.47;;;-0.48;100.00
54389;BME280;40975;50.390;8.640;2023-02-16T04:25:51;100079.97;;;-0.51;100.00
54389;BME280;40975;50.390;8.640;2023-02-16T04:28:17;100094.75;;;-0.51;100.00
54389;BME280;40975;50.390;8.640;2023-02-16T04:30:42;100095.06;;;-0.60;100.00
54389;BME280;40975;50.390;8.640;2023-02-16T04:33:07;100083.81;;;-0.61;100.00
54389;BME280;40975;50.390;8.640;2023-02-16T04:35:33;100093.44;;;-0.63;100.00
54389;BME280;40975;50.390;8.640;2023-02-16T04:37:58;100083.97;;;-0.66;100.00
54389;BME280;40975;50.390;8.640;2023-02-16T04:40:23;100088.25;;;-0.65;100.00
54389;BME280;40975;50.390;8.640;2023-02-16T04:42:49;100103.13;;;-0.67;100.00
54389;BME280;40975;50.390;8.640;2023-02-16T04:45:14;100097.16;;;-0.70;100.00
54389;BME280;40975;50.390;8.640;2023-02-16T04:47:40;100093.78;;;-0.74;100.00
54389;BME280;40975;50.390;8.640;2023-02-16T04:50:06;100106.19;;;-0.81;100.00
54389;BME280;40975;50.390;8.640;2023-02-16T04:52:32;100096.66;;;-0.82;100.00
54389;BME280;40975;50.390;8.640;2023-02-16T04:54:58;100096.97;;;-0.91;100.00
54389;BME280;40975;50.390;8.640;2023-02-16T04:57:24;100097.00;;;-0.92;100.00
54389;BME280;40975;50.390;8.640;2023-02-16T04:59:49;100094.28;;;-0.89;100.00
54389;BME280;40975;50.390;8.640;2023-02-16T05:02:15;100076.59;;;-1.06;100.00
54389;BME280;40975;50.390;8.640;2023-02-16T05:04:40;100087.59;;;-0.98;100.00
54389;BME280;40975;50.390;8.640;2023-02-16T05:07:06;100092.78;;;-0.97;100.00
54389;BME280;40975;50.390;8.640;2023-02-16T05:09:31;100099.72;;;-0.96;100.00
54389;BME280;40975;50.390;8.640;2023-02-16T05:11:56;100078.88;;;-0.96;100.00
54389;BME280;40975;50.390;8.640;2023-02-16T05:14:40;100084.81;;;-0.92;100.00
54389;BME280;40975;50.390;8.640;2023-02-16T05:17:26;100091.03;;;-0.96;100.00
54389;BME280;40975;50.390;8.640;2023-02-16T05:19:56;100090.94;;;-0.93;100.00
54389;BME280;40975;50.390;8.640;2023-02-16T05:22:22;100092.72;;;-0.95;100.00
54389;BME280;40975;50.390;8.640;2023-02-16T05:24:48;100095.50;;;-1.00;100.00
54389;BME280;40975;50.390;8.640;2023-02-16T05:27:21;100096.44;;;-1.02;100.00
54389;BME280;40975;50.390;8.640;2023-02-16T05:29:47;100101.81;;;-1.07;100.00
54389;BME280;40975;50.390;8.640;2023-02-16T05:32:12;100097.34;;;-1.03;100.00
54389;BME280;40975;50.390;8.640;2023-02-16T05:34:38;100093.69;;;-0.98;100.00
54389;BME280;40975;50.390;8.640;2023-02-16T05:37:04;100105.06;;;-1.00;100.00
54389;BME280;40975;50.390;8.640;2023-02-16T05:41:57;100111.06;;;-0.98;100.00
54389;BME280;40975;50.390;8.640;2023-02-16T05:44:23;100113.63;;;-0.97;100.00
54389;BME280;40975;50.390;8.640;2023-02-16T05:46:48;100113.66;;;-0.98;100.00
54389;BME280;40975;50.390;8.640;2023-02-16T05:49:14;100113.63;;;-0.97;100.00
54389;BME280;40975;50.390;8.640;2023-02-16T05:51:40;100108.50;;;-1.00;100.00
54389;BME280;40975;50.390;8.640;2023-02-16T05:54:06;100097.44;;;-1.06;100.00
54389;BME280;40975;50.390;8.640;2023-02-16T05:56:31;100100.84;;;-1.04;100.00
54389;BME280;40975;50.390;8.640;2023-02-16T05:58:58;100109.41;;;-1.01;100.00
54389;BME280;40975;50.390;8.640;2023-02-16T06:01:25;100106.19;;;-1.09;100.00
54389;BME280;40975;50.390;8.640;2023-02-16T06:03:50;100106.91;;;-1.04;100.00
54389;BME280;40975;50.390;8.640;2023-02-16T06:06:16;100110.44;;;-1.05;100.00
54389;BME280;40975;50.390;8.640;2023-02-16T06:08:41;100112.91;;;-1.02;100.00
54389;BME280;40975;50.390;8.640;2023-02-16T06:11:07;100111.94;;;-0.98;100.00
54389;BME280;40975;50.390;8.640;2023-02-16T06:13:52;100117.09;;;-0.96;100.00
54389;BME280;40975;50.390;8.640;2023-02-16T06:16:23;100118.78;;;-0.95;100.00
54389;BME280;40975;50.390;8.640;2023-02-16T06:18:48;100129.13;;;-0.92;100.00
54389;BME280;40975;50.390;8.640;2023-02-16T06:21:13;100126.66;;;-0.97;100.00
54389;BME280;40975;50.390;8.640;2023-02-16T06:23:39;100136.94;;;-0.92;100.00
54389;BME280;40975;50.390;8.640;2023-02-16T06:26:04;100137.75;;;-0.90;100.00
54389;BME280;40975;50.390;8.640;2023-02-16T06:28:29;100132.03;;;-0.74;100.00
54389;BME280;40975;50.390;8.640;2023-02-16T06:30:55;100138.22;;;-0.77;100.00
54389;BME280;40975;50.390;8.640;2023-02-16T06:33:20;100144.34;;;-0.80;100.00
54389;BME280;40975;50.390;8.640;2023-02-16T06:35:46;100136.44;;;-0.76;100.00
54389;BME280;40975;50.390;8.640;2023-02-16T06:38:11;100126.06;;;-0.78;100.00
54389;BME280;40975;50.390;8.640;2023-02-16T06:40:36;100129.66;;;-0.82;100.00
54389;BME280;40975;50.390;8.640;2023-02-16T06:43:01;100130.69;;;-0.86;100.00
54389;BME280;40975;50.390;8.640;2023-02-16T06:45:27;100141.13;;;-0.86;100.00
54389;BME280;40975;50.390;8.640;2023-02-16T06:47:52;100138.25;;;-0.79;100.00
54389;BME280;40975;50.390;8.640;2023-02-16T06:50:18;100133.00;;;-0.77;100.00
54389;BME280;40975;50.390;8.640;2023-02-16T06:52:43;100124.91;;;-0.69;100.00
54389;BME280;40975;50.390;8.640;2023-02-16T06:55:08;100126.97;;;-0.79;100.00
54389;BME280;40975;50.390;8.640;2023-02-16T06:57:34;100122.66;;;-0.80;100.00
54389;BME280;40975;50.390;8.640;2023-02-16T06:59:59;100126.72;;;-0.71;100.00
54389;BME280;40975;50.390;8.640;2023-02-16T07:02:24;100132.56;;;-0.65;100.00
54389;BME280;40975;50.390;8.640;2023-02-16T07:04:49;100132.78;;;-0.71;100.00
54389;BME280;40975;50.390;8.640;2023-02-16T07:07:15;100136.13;;;-0.66;100.00
54389;BME280;40975;50.390;8.640;2023-02-16T07:09:40;100139.47;;;-0.62;100.00
54389;BME280;40975;50.390;8.640;2023-02-16T07:12:06;100130.75;;;-0.61;100.00
54389;BME280;40975;50.390;8.640;2023-02-16T07:14:31;100132.38;;;-0.58;100.00
54389;BME280;40975;50.390;8.640;2023-02-16T07:16:57;100140.13;;;-0.55;100.00
54389;BME280;40975;50.390;8.640;2023-02-16T07:19:24;100132.34;;;-0.57;100.00
54389;BME280;40975;50.390;8.640;2023-02-16T07:21:49;100141.56;;;-0.47;100.00
54389;BME280;40975;50.390;8.640;2023-02-16T07:24:15;100138.28;;;-0.53;100.00
54389;BME280;40975;50.390;8.640;2023-02-16T07:26:40;100135.91;;;-0.59;100.00
54389;BME280;40975;50.390;8.640;2023-02-16T07:29:05;100138.31;;;-0.80;100.00
54389;BME280;40975;50.390;8.640;2023-02-16T07:31:31;100133.34;;;-0.61;100.00
54389;BME280;40975;50.390;8.640;2023-02-16T07:33:56;100140.41;;;-0.65;100.00
54389;BME280;40975;50.390;8.640;2023-02-16T07:36:21;100145.22;;;-0.52;100.00
54389;BME280;40975;50.390;8.640;2023-02-16T07:38:47;100138.09;;;-0.47;100.00
54389;BME280;40975;50.390;8.640;2023-02-16T07:41:12;100136.16;;;-0.67;100.00
54389;BME280;40975;50.390;8.640;2023-02-16T07:43:37;100152.84;;;-0.46;100.00
54389;BME280;40975;50.390;8.640;2023-02-16T07:46:03;100151.84;;;-0.42;100.00
54389;BME280;40975;50.390;8.640;2023-02-16T07:48:29;100148.94;;;-0.59;100.00
54389;BME280;40975;50.390;8.640;2023-02-16T07:50:55;100144.38;;;-0.53;100.00
54389;BME280;40975;50.390;8.640;2023-02-16T07:53:20;100150.13;;;-0.43;100.00
54389;BME280;40975;50.390;8.640;2023-02-16T07:55:45;100146.84;;;-0.48;100.00
54389;BME280;40975;50.390;8.640;2023-02-16T07:58:11;100142.44;;;-0.46;100.00
54389;BME280;40975;50.390;8.640;2023-02-16T08:01:10;100144.22;;;-0.48;100.00
54389;BME280;40975;50.390;8.640;2023-02-16T08:03:36;100152.69;;;-0.41;100.00
54389;BME280;40975;50.390;8.640;2023-02-16T08:06:02;100150.88;;;-0.39;100.00
54389;BME280;40975;50.390;8.640;2023-02-16T08:08:28;100150.13;;;-0.43;100.00
54389;BME280;40975;50.390;8.640;2023-02-16T08:10:53;100156.09;;;-0.39;100.00
54389;BME280;40975;50.390;8.640;2023-02-16T08:13:19;100149.56;;;-0.26;100.00
54389;BME280;40975;50.390;8.640;2023-02-16T08:15:45;100151.03;;;-0.19;100.00
54389;BME280;40975;50.390;8.640;2023-02-16T08:18:10;100156.81;;;-0.09;100.00
54389;BME280;40975;50.390;8.640;2023-02-16T08:20:36;100146.94;;;-0.01;100.00
54389;BME280;40975;50.390;8.640;2023-02-16T08:23:01;100153.03;;;0.00;100.00
54389;BME280;40975;50.390;8.640;2023-02-16T08:25:26;100145.47;;;0.18;100.00
54389;BME280;40975;50.390;8.640;2023-02-16T08:27:52;100150.50;;;0.22;100.00
54389;BME280;40975;50.390;8.640;2023-02-16T08:30:17;100149.78;;;0.19;100.00
54389;BME280;40975;50.390;8.640;2023-02-16T08:32:44;100156.88;;;0.39;100.00
54389;BME280;40975;50.390;8.640;2023-02-16T08:35:10;100152.44;;;0.41;100.00
54389;BME280;40975;50.390;8.640;2023-02-16T08:37:37;100145.81;;;0.56;100.00
54389;BME280;40975;50.390;8.640;2023-02-16T08:40:04;100142.28;;;0.57;100.00
54389;BME280;40975;50.390;8.640;2023-02-16T08:42:31;100144.09;;;0.55;100.00
54389;BME280;40975;50.390;8.640;2023-02-16T08:44:56;100144.38;;;0.71;100.00
54389;BME280;40975;50.390;8.640;2023-02-16T08:47:22;100144.25;;;0.74;100.00
54389;BME280;40975;50.390;8.640;2023-02-16T08:49:48;100145.09;;;0.74;100.00
54389;BME280;40975;50.390;8.640;2023-02-16T08:52:14;100143.22;;;0.78;100.00
54389;BME280;40975;50.390;8.640;2023-02-16T08:54:39;100156.63;;;0.92;100.00
54389;BME280;40975;50.390;8.640;2023-02-16T08:57:04;100148.50;;;0.76;100.00
54389;BME280;40975;50.390;8.640;2023-02-16T08:59:30;100114.53;;;0.54;100.00
54389;BME280;40975;50.390;8.640;2023-02-16T09:01:58;100156.06;;;0.84;100.00
54389;BME280;40975;50.390;8.640;2023-02-16T09:04:25;100159.69;;;0.56;100.00
54389;BME280;40975;50.390;8.640;2023-02-16T09:06:53;100165.63;;;0.61;100.00
54389;BME280;40975;50.390;8.640;2023-02-16T09:09:19;100164.88;;;0.58;100.00
54389;BME280;40975;50.390;8.640;2023-02-16T09:11:44;100164.03;;;0.57;100.00
54389;BME280;40975;50.390;8.640;2023-02-16T09:14:10;100173.28;;;0.42;100.00
54389;BME280;40975;50.390;8.640;2023-02-16T09:16:36;100172.03;;;0.29;100.00
54389;BME280;40975;50.390;8.640;2023-02-16T09:19:04;100167.81;;;0.25;100.00
54389;BME280;40975;50.390;8.640;2023-02-16T09:21:31;100173.28;;;0.19;100.00
54389;BME280;40975;50.390;8.640;2023-02-16T09:23:58;100176.47;;;0.27;100.00
54389;BME280;40975;50.390;8.640;2023-02-16T09:26:25;100167.25;;;0.40;100.00
54389;BME280;40975;50.390;8.640;2023-02-16T09:28:51;100161.81;;;0.46;100.00
54389;BME280;40975;50.390;8.640;2023-02-16T09:33:55;100163.47;;;0.73;100.00
54389;BME280;40975;50.390;8.640;2023-02-16T09:36:20;100172.84;;;0.79;100.00
54389;BME280;40975;50.390;8.640;2023-02-16T09:38:46;100180.59;;;0.80;100.00
54389;BME280;40975;50.390;8.640;2023-02-16T09:46:58;100187.34;;;0.86;100.00
54389;BME280;40975;50.390;8.640;2023-02-16T09:49:37;100190.59;;;0.92;100.00
54389;BME280;40975;50.390;8.640;2023-02-16T09:54:46;100186.94;;;0.97;100.00
54389;BME280;40975;50.390;8.640;2023-02-16T09:59:57;100179.34;;;1.35;100.00
54389;BME280;40975;50.390;8.640;2023-02-16T10:05:16;100177.56;;;1.58;100.00
54389;BME280;40975;50.390;8.640;2023-02-16T10:07:52;100176.16;;;1.71;100.00
54389;BME280;40975;50.390;8.640;2023-02-16T10:10:24;100172.81;;;1.67;100.00
54389;BME280;40975;50.390;8.640;2023-02-16T10:12:59;100173.38;;;1.95;100.00
54389;BME280;40975;50.390;8.640;2023-02-16T10:15:29;100181.44;;;2.11;100.00
54389;BME280;40975;50.390;8.640;2023-02-16T10:18:16;100178.47;;;1.99;100.00
54389;BME280;40975;50.390;8.640;2023-02-16T10:20:47;100177.91;;;1.91;100.00
54389;BME280;40975;50.390;8.640;2023-02-16T10:23:31;100178.81;;;1.90;100.00
54389;BME280;40975;50.390;8.640;2023-02-16T10:28:48;100175.03;;;2.18;100.00
54389;BME280;40975;50.390;8.640;2023-02-16T10:31:26;100177.97;;;2.10;100.00
54389;BME280;40975;50.390;8.640;2023-02-16T10:39:47;100158.59;;;2.54;100.00
54389;BME280;40975;50.390;8.640;2023-02-16T10:42:34;100156.53;;;2.61;100.00
54389;BME280;40975;50.390;8.640;2023-02-16T10:47:42;100147.16;;;2.36;100.00
54389;BME280;40975;50.390;8.640;2023-02-16T10:50:22;100140.22;;;2.35;100.00
54389;BME280;40975;50.390;8.640;2023-02-16T10:52:51;100142.28;;;2.47;100.00
54389;BME280;40975;50.390;8.640;2023-02-16T10:55:18;100141.38;;;2.29;100.00
54389;BME280;40975;50.390;8.640;2023-02-16T10:57:50;100142.38;;;2.46;100.00
54389;BME280;40975;50.390;8.640;2023-02-16T11:00:23;100138.28;;;2.59;100.00
54389;BME280;40975;50.390;8.640;2023-02-16T11:02:52;100141.59;;;2.63;100.00
54389;BME280;40975;50.390;8.640;2023-02-16T11:05:35;100133.50;;;2.68;100.00
54389;BME280;40975;50.390;8.640;2023-02-16T11:08:02;100131.31;;;2.58;100.00
54389;BME280;40975;50.390;8.640;2023-02-16T11:13:02;100125.16;;;2.59;100.00
54389;BME280;40975;50.390;8.640;2023-02-16T11:15:28;100120.47;;;2.47;100.00
54389;BME280;40975;50.390;8.640;2023-02-16T11:17:56;100126.50;;;2.49;100.00
54389;BME280;40975;50.390;8.640;2023-02-16T11:20:28;100118.56;;;2.51;100.00
54389;BME280;40975;50.390;8.640;2023-02-16T11:25:55;100115.50;;;2.60;100.00
54389;BME280;40975;50.390;8.640;2023-02-16T11:28:43;100103.19;;;2.62;100.00
54389;BME280;40975;50.390;8.640;2023-02-16T11:33:34;100096.22;;;2.80;100.00
54389;BME280;40975;50.390;8.640;2023-02-16T11:36:00;100098.63;;;2.85;100.00
54389;BME280;40975;50.390;8.640;2023-02-16T11:38:34;100093.56;;;2.99;100.00
54389;BME280;40975;50.390;8.640;2023-02-16T11:41:02;100097.91;;;3.00;100.00
54389;BME280;40975;50.390;8.640;2023-02-16T11:43:32;100100.84;;;3.11;100.00
54389;BME280;40975;50.390;8.640;2023-02-16T11:46:02;100107.19;;;3.25;100.00
54389;BME280;40975;50.390;8.640;2023-02-16T11:48:30;100099.38;;;3.06;100.00
54389;BME280;40975;50.390;8.640;2023-02-16T11:51:03;100096.41;;;3.31;100.00
54389;BME280;40975;50.390;8.640;2023-02-16T11:53:32;100092.84;;;3.50;100.00
54389;BME280;40975;50.390;8.640;2023-02-16T11:59:22;100087.19;;;3.75;100.00
54389;BME280;40975;50.390;8.640;2023-02-16T12:05:23;100086.38;;;4.08;100.00
54389;BME280;40975;50.390;8.640;2023-02-16T12:11:04;100079.19;;;4.60;100.00
54389;BME280;40975;50.390;8.640;2023-02-16T12:13:59;100072.06;;;4.46;100.00
54389;BME280;40975;50.390;8.640;2023-02-16T12:16:40;100076.09;;;4.19;100.00
54389;BME280;40975;50.390;8.640;2023-02-16T12:19:34;100064.44;;;4.41;100.00
54389;BME280;40975;50.390;8.640;2023-02-16T12:22:28;100056.97;;;4.49;100.00
54389;BME280;40975;50.390;8.640;2023-02-16T12:27:39;100050.13;;;4.63;100.00
54389;BME280;40975;50.390;8.640;2023-02-16T12:30:22;100052.75;;;4.63;100.00
54389;BME280;40975;50.390;8.640;2023-02-16T12:44:34;100048.75;;;4.72;100.00
54389;BME280;40975;50.390;8.640;2023-02-16T12:47:07;100049.94;;;4.66;100.00
54389;BME280;40975;50.390;8.640;2023-02-16T12:58:25;100029.44;;;4.41;100.00
54389;BME280;40975;50.390;8.640;2023-02-16T13:01:02;100025.59;;;4.14;100.00
54389;BME280;40975;50.390;8.640;2023-02-16T13:03:39;100018.72;;;3.96;100.00
54389;BME280;40975;50.390;8.640;2023-02-16T13:06:21;100017.13;;;4.09;100.00
54389;BME280;40975;50.390;8.640;2023-02-16T13:11:34;100013.25;;;4.32;100.00
54389;BME280;40975;50.390;8.640;2023-02-16T13:14:05;100009.84;;;4.46;100.00
54389;BME280;40975;50.390;8.640;2023-02-16T13:16:41;100006.72;;;4.40;100.00
54389;BME280;40975;50.390;8.640;2023-02-16T13:19:12;99996.94;;;4.58;100.00
54389;BME280;40975;50.390;8.640;2023-02-16T13:24:20;99989.06;;;4.88;100.00
54389;BME280;40975;50.390;8.640;2023-02-16T13:26:59;99985.97;;;4.65;100.00
54389;BME280;40975;50.390;8.640;2023-02-16T13:32:55;99982.09;;;4.73;100.00
54389;BME280;40975;50.390;8.640;2023-02-16T13:42:05;99973.06;;;4.30;100.00
54389;BME280;40975;50.390;8.640;2023-02-16T13:44:16;99977.69;;;4.25;100.00
54389;BME280;40975;50.390;8.640;2023-02-16T13:46:45;99980.69;;;4.19;100.00
54389;BME280;40975;50.390;8.640;2023-02-16T13:49:33;99974.50;;;4.20;100.00
54389;BME280;40975;50.390;8.640;2023-02-16T13:52:05;99972.13;;;4.31;100.00
54389;BME280;40975;50.390;8.640;2023-02-16T13:54:37;99968.81;;;4.44;100.00
54389;BME280;40975;50.390;8.640;2023-02-16T13:57:10;99968.72;;;4.45;100.00
54389;BME280;40975;50.390;8.640;2023-02-16T14:02:02;99959.81;;;4.48;100.00
54389;BME280;40975;50.390;8.640;2023-02-16T14:20:04;99944.25;;;4.29;100.00
54389;BME280;40975;50.390;8.640;2023-02-16T14:22:36;99948.72;;;4.27;100.00
54389;BME280;40975;50.390;8.640;2023-02-16T14:25:05;99941.41;;;4.32;100.00
54389;BME280;40975;50.390;8.640;2023-02-16T14:27:59;99942.19;;;4.34;100.00
54389;BME280;40975;50.390;8.640;2023-02-16T14:30:32;99945.22;;;4.42;100.00
54389;BME280;40975;50.390;8.640;2023-02-16T14:35:40;99951.75;;;4.51;100.00
54389;BME280;40975;50.390;8.640;2023-02-16T14:38:15;99937.41;;;4.57;100.00
54389;BME280;40975;50.390;8.640;2023-02-16T14:40:59;99933.66;;;4.61;100.00
54389;BME280;40975;50.390;8.640;2023-02-16T14:43:30;99948.06;;;4.70;100.00
54389;BME280;40975;50.390;8.640;2023-02-16T14:46:20;99946.38;;;4.69;100.00
54389;BME280;40975;50.390;8.640;2023-02-16T14:54:46;99937.16;;;4.61;100.00
54389;BME280;40975;50.390;8.640;2023-02-16T15:02:33;99939.69;;;4.63;100.00
54389;BME280;40975;50.390;8.640;2023-02-16T15:05:17;99942.13;;;4.66;100.00
54389;BME280;40975;50.390;8.640;2023-02-16T15:07:50;99945.56;;;4.82;100.00
54389;BME280;40975;50.390;8.640;2023-02-16T15:10:23;99945.66;;;4.81;100.00
54389;BME280;40975;50.390;8.640;2023-02-16T15:12:51;99938.59;;;4.81;100.00
54389;BME280;40975;50.390;8.640;2023-02-16T15:15:19;99931.91;;;4.76;100.00
54389;BME280;40975;50.390;8.640;2023-02-16T15:17:47;99931.69;;;4.64;100.00
54389;BME280;40975;50.390;8.640;2023-02-16T15:20:23;99929.50;;;4.73;100.00
54389;BME280;40975;50.390;8.640;2023-02-16T15:23:04;99934.38;;;4.79;100.00